sensor_id;sensor_type;location;lat;lon;timestamp;temperature;humidity
16247;DHT22;8231;50.866;7.944;2023-04-30T00:00:38;6.20;99.90
16247;DHT22;8231;50.866;7.944;2023-04-30T00:03:06;6.20;99.90
16247;DHT22;8231;50.866;7.944;2023-04-30T00:05:36;6.10;99.90
16247;DHT22;8231;50.866;7.944;2023-04-30T00:08:05;6.00;99.90
16247;DHT22;8231;50.866;7.944;2023-04-30T00:10:33;6.10;99.90
16247;DHT22;8231;50.866;7.944;2023-04-30T00:13:01;5.80;99.90
16247;DHT22;8231;50.866;7.944;2023-04-30T00:15:29;5.80;99.90
16247;DHT22;8231;50.866;7.944;2023-04-30T00:17:57;6.10;99.90
16247;DHT22;8231;50.866;7.944;2023-04-30T00:20:25;5.80;99.90
16247;DHT22;8231;50.866;7.944;2023-04-30T00:22:55;5.70;99.90
16247;DHT22;8231;50.866;7.944;2023-04-30T00:25:23;5.80;99.90
16247;DHT22;8231;50.866;7.944;2023-04-30T00:27:51;5.60;99.90
16247;DHT22;8231;50.866;7.944;2023-04-30T00:30:20;5.50;99.90
16247;DHT22;8231;50.866;7.944;2023-04-30T00:32:48;5.40;99.90
16247;DHT22;8231;50.866;7.944;2023-04-30T00:35:17;5.30;99.90
16247;DHT22;8231;50.866;7.944;2023-04-30T00:37:45;5.20;99.90
16247;DHT22;8231;50.866;7.944;2023-04-30T00:40:15;5.20;99.90
16247;DHT22;8231;50.866;7.944;2023-04-30T00:42:43;5.70;99.90
16247;DHT22;8231;50.866;7.944;2023-04-30T00:45:11;5.10;99.90
16247;DHT22;8231;50.866;7.944;2023-04-30T00:47:40;5.50;99.90
16247;DHT22;8231;50.866;7.944;2023-04-30T00:50:08;5.10;99.90
16247;DHT22;8231;50.866;7.944;2023-04-30T00:52:37;5.10;99.90
16247;DHT22;8231;50.866;7.944;2023-04-30T00:55:06;5.00;99.90
16247;DHT22;8231;50.866;7.944;2023-04-30T00:57:37;5.00;99.90
16247;DHT22;8231;50.866;7.944;2023-04-30T01:00:07;5.00;99.90
16247;DHT22;8231;50.866;7.944;2023-04-30T01:02:37;4.90;99.90
16247;DHT22;8231;50.866;7.944;2023-04-30T01:05:06;4.70;99.90
16247;DHT22;8231;50.866;7.944;2023-04-30T01:07:35;4.60;99.90
16247;DHT22;8231;50.866;7.944;2023-04-30T01:10:05;4.60;99.90
16247;DHT22;8231;50.866;7.944;2023-04-30T01:12:40;4.50;99.90
16247;DHT22;8231;50.866;7.944;2023-04-30T01:15:18;4.50;99.90
16247;DHT22;8231;50.866;7.944;2023-04-30T01:17:54;4.50;99.90
16247;DHT22;8231;50.866;7.944;2023-04-30T01:20:25;4.50;99.90
16247;DHT22;8231;50.866;7.944;2023-04-30T01:23:17;5.00;99.90
16247;DHT22;8231;50.866;7.944;2023-04-30T01:26:05;4.40;99.90
16247;DHT22;8231;50.866;7.944;2023-04-30T01:28:39;4.30;99.90
16247;DHT22;8231;50.866;7.944;2023-04-30T01:31:13;4.40;99.90
16247;DHT22;8231;50.866;7.944;2023-04-30T01:33:42;4.20;99.90
16247;DHT22;8231;50.866;7.944;2023-04-30T01:36:34;4.10;99.90
16247;DHT22;8231;50.866;7.944;2023-04-30T01:39:12;4.10;99.90
16247;DHT22;8231;50.866;7.944;2023-04-30T01:41:51;4.10;99.90
16247;DHT22;8231;50.866;7.944;2023-04-30T01:44:34;4.10;99.90
16247;DHT22;8231;50.866;7.944;2023-04-30T01:47:14;4.10;99.90
16247;DHT22;8231;50.866;7.944;2023-04-30T01:49:50;4.00;99.90
16247;DHT22;8231;50.866;7.944;2023-04-30T01:52:28;3.90;99.90
16247;DHT22;8231;50.866;7.944;2023-04-30T01:55:03;3.90;99.90
16247;DHT22;8231;50.866;7.944;2023-04-30T01:57:36;3.80;99.90
16247;DHT22;8231;50.866;7.944;2023-04-30T02:00:08;3.80;99.90
16247;DHT22;8231;50.866;7.944;2023-04-30T02:02:40;3.80;99.90
16247;DHT22;8231;50.866;7.944;2023-04-30T02:05:09;3.80;99.90
16247;DHT22;8231;50.866;7.944;2023-04-30T02:07:39;4.20;99.90
16247;DHT22;8231;50.866;7.944;2023-04-30T02:10:09;4.20;99.90
16247;DHT22;8231;50.866;7.944;2023-04-30T02:12:38;3.60;99.90
16247;DHT22;8231;50.866;7.944;2023-04-30T02:15:09;3.60;99.90
16247;DHT22;8231;50.866;7.944;2023-04-30T02:33:18;3.50;99.90
16247;DHT22;8231;50.866;7.944;2023-04-30T02:35:46;3.50;99.90
16247;DHT22;8231;50.866;7.944;2023-04-30T02:38:14;3.60;99.90
16247;DHT22;8231;50.866;7.944;2023-04-30T02:40:42;3.90;99.90
16247;DHT22;8231;50.866;7.944;2023-04-30T02:43:10;3.70;99.90
16247;DHT22;8231;50.866;7.944;2023-04-30T02:45:38;3.80;99.90
16247;DHT22;8231;50.866;7.944;2023-04-30T02:48:07;3.80;99.90
16247;DHT22;8231;50.866;7.944;2023-04-30T02:50:37;3.90;99.90
16247;DHT22;8231;50.866;7.944;2023-04-30T02:53:05;4.20;99.90
16247;DHT22;8231;50.866;7.944;2023-04-30T02:55:33;4.00;99.90
16247;DHT22;8231;50.866;7.944;2023-04-30T02:58:02;4.00;99.90
16247;DHT22;8231;50.866;7.944;2023-04-30T03:00:31;4.00;99.90
16247;DHT22;8231;50.866;7.944;2023-04-30T03:02:59;4.10;99.90
16247;DHT22;8231;50.866;7.944;2023-04-30T03:05:28;4.50;99.90
16247;DHT22;8231;50.866;7.944;2023-04-30T03:07:58;4.20;99.90
16247;DHT22;8231;50.866;7.944;2023-04-30T03:10:26;4.20;99.90
16247;DHT22;8231;50.866;7.944;2023-04-30T03:12:55;4.30;99.90
16247;DHT22;8231;50.866;7.944;2023-04-30T03:15:23;4.30;99.90
16247;DHT22;8231;50.866;7.944;2023-04-30T03:17:52;4.30;99.90
16247;DHT22;8231;50.866;7.944;2023-04-30T03:20:20;4.30;99.90
16247;DHT22;8231;50.866;7.944;2023-04-30T03:22:48;4.30;99.90
16247;DHT22;8231;50.866;7.944;2023-04-30T03:25:19;4.30;99.90
16247;DHT22;8231;50.866;7.944;2023-04-30T03:27:47;4.30;99.90
16247;DHT22;8231;50.866;7.944;2023-04-30T03:30:37;4.30;99.90
16247;DHT22;8231;50.866;7.944;2023-04-30T03:33:05;4.30;99.90
16247;DHT22;8231;50.866;7.944;2023-04-30T03:35:34;4.30;99.90
16247;DHT22;8231;50.866;7.944;2023-04-30T03:38:02;4.20;99.90
16247;DHT22;8231;50.866;7.944;2023-04-30T03:40:32;4.20;99.90
16247;DHT22;8231;50.866;7.944;2023-04-30T03:43:00;4.20;99.90
16247;DHT22;8231;50.866;7.944;2023-04-30T03:45:28;4.20;99.90
16247;DHT22;8231;50.866;7.944;2023-04-30T03:47:57;4.10;99.90
16247;DHT22;8231;50.866;7.944;2023-04-30T03:50:25;4.10;99.90
16247;DHT22;8231;50.866;7.944;2023-04-30T03:52:53;4.10;99.90
16247;DHT22;8231;50.866;7.944;2023-04-30T03:55:22;4.10;99.90
16247;DHT22;8231;50.866;7.944;2023-04-30T03:57:51;4.40;99.90
16247;DHT22;8231;50.866;7.944;2023-04-30T04:00:21;4.00;99.90
16247;DHT22;8231;50.866;7.944;2023-04-30T04:02:52;4.00;99.90
16247;DHT22;8231;50.866;7.944;2023-04-30T04:05:21;3.90;99.90
16247;DHT22;8231;50.866;7.944;2023-04-30T04:07:49;4.00;99.90
16247;DHT22;8231;50.866;7.944;2023-04-30T04:10:18;4.10;99.90
16247;DHT22;8231;50.866;7.944;2023-04-30T04:12:46;4.10;99.90
16247;DHT22;8231;50.866;7.944;2023-04-30T04:15:16;4.10;99.90
16247;DHT22;8231;50.866;7.944;2023-04-30T04:17:44;4.10;99.90
16247;DHT22;8231;50.866;7.944;2023-04-30T04:20:13;4.00;99.90
16247;DHT22;8231;50.866;7.944;2023-04-30T04:22:41;3.90;99.90
16247;DHT22;8231;50.866;7.944;2023-04-30T04:25:10;3.90;99.90
16247;DHT22;8231;50.866;7.944;2023-04-30T04:27:41;4.00;99.90
16247;DHT22;8231;50.866;7.944;2023-04-30T04:30:11;4.00;99.90
16247;DHT22;8231;50.866;7.944;2023-04-30T04:32:41;3.90;99.90
16247;DHT22;8231;50.866;7.944;2023-04-30T04:35:16;3.90;99.90
16247;DHT22;8231;50.866;7.944;2023-04-30T04:37:45;3.90;99.90
16247;DHT22;8231;50.866;7.944;2023-04-30T04:40:13;4.00;99.90
16247;DHT22;8231;50.866;7.944;2023-04-30T04:42:42;4.00;99.90
16247;DHT22;8231;50.866;7.944;2023-04-30T04:45:11;4.00;99.90
16247;DHT22;8231;50.866;7.944;2023-04-30T04:47:43;4.00;99.90
16247;DHT22;8231;50.866;7.944;2023-04-30T04:50:13;4.00;99.90
16247;DHT22;8231;50.866;7.944;2023-04-30T04:52:41;4.10;99.90
16247;DHT22;8231;50.866;7.944;2023-04-30T04:55:10;4.20;99.90
16247;DHT22;8231;50.866;7.944;2023-04-30T04:57:38;4.10;99.90
16247;DHT22;8231;50.866;7.944;2023-04-30T05:00:08;4.10;99.90
16247;DHT22;8231;50.866;7.944;2023-04-30T05:02:37;4.20;99.90
16247;DHT22;8231;50.866;7.944;2023-04-30T05:05:08;4.20;99.90
16247;DHT22;8231;50.866;7.944;2023-04-30T05:07:37;4.20;99.90
16247;DHT22;8231;50.866;7.944;2023-04-30T05:10:06;4.20;99.90
16247;DHT22;8231;50.866;7.944;2023-04-30T05:12:35;4.40;99.90
16247;DHT22;8231;50.866;7.944;2023-04-30T05:15:03;4.40;99.90
16247;DHT22;8231;50.866;7.944;2023-04-30T05:17:32;4.40;99.90
16247;DHT22;8231;50.866;7.944;2023-04-30T05:20:00;4.50;99.90
16247;DHT22;8231;50.866;7.944;2023-04-30T05:22:30;4.60;99.90
16247;DHT22;8231;50.866;7.944;2023-04-30T05:24:59;4.60;99.90
16247;DHT22;8231;50.866;7.944;2023-04-30T05:27:27;4.80;99.90
16247;DHT22;8231;50.866;7.944;2023-04-30T05:29:55;5.00;99.90
16247;DHT22;8231;50.866;7.944;2023-04-30T05:32:23;5.20;99.90
16247;DHT22;8231;50.866;7.944;2023-04-30T05:34:52;5.40;99.90
16247;DHT22;8231;50.866;7.944;2023-04-30T05:37:20;5.60;99.90
16247;DHT22;8231;50.866;7.944;2023-04-30T05:39:50;5.90;99.90
16247;DHT22;8231;50.866;7.944;2023-04-30T05:42:20;6.30;99.90
16247;DHT22;8231;50.866;7.944;2023-04-30T05:44:48;6.60;99.90
16247;DHT22;8231;50.866;7.944;2023-04-30T05:47:16;6.80;99.90
16247;DHT22;8231;50.866;7.944;2023-04-30T05:49:44;7.30;99.90
16247;DHT22;8231;50.866;7.944;2023-04-30T05:52:13;8.20;99.90
16247;DHT22;8231;50.866;7.944;2023-04-30T05:54:43;8.10;99.90
16247;DHT22;8231;50.866;7.944;2023-04-30T05:57:15;8.70;99.90
16247;DHT22;8231;50.866;7.944;2023-04-30T05:59:44;9.40;99.90
16247;DHT22;8231;50.866;7.944;2023-04-30T06:02:12;10.20;99.90
16247;DHT22;8231;50.866;7.944;2023-04-30T06:04:40;11.10;99.90
16247;DHT22;8231;50.866;7.944;2023-04-30T06:07:09;11.80;99.90
16247;DHT22;8231;50.866;7.944;2023-04-30T06:09:42;12.70;99.90
16247;DHT22;8231;50.866;7.944;2023-04-30T06:12:11;13.10;99.90
16247;DHT22;8231;50.866;7.944;2023-04-30T06:14:40;13.50;99.90
16247;DHT22;8231;50.866;7.944;2023-04-30T06:17:11;13.70;99.90
16247;DHT22;8231;50.866;7.944;2023-04-30T06:19:40;13.50;99.90
16247;DHT22;8231;50.866;7.944;2023-04-30T06:22:08;13.20;99.90
16247;DHT22;8231;50.866;7.944;2023-04-30T06:24:36;12.90;99.90
16247;DHT22;8231;50.866;7.944;2023-04-30T06:27:05;13.00;99.90
16247;DHT22;8231;50.866;7.944;2023-04-30T06:29:33;13.20;99.90
16247;DHT22;8231;50.866;7.944;2023-04-30T06:32:02;13.80;99.90
16247;DHT22;8231;50.866;7.944;2023-04-30T06:34:34;14.60;99.90
16247;DHT22;8231;50.866;7.944;2023-04-30T06:37:03;15.60;99.90
16247;DHT22;8231;50.866;7.944;2023-04-30T06:39:31;16.30;99.90
16247;DHT22;8231;50.866;7.944;2023-04-30T06:42:00;17.00;99.90
16247;DHT22;8231;50.866;7.944;2023-04-30T06:44:28;17.60;99.90
16247;DHT22;8231;50.866;7.944;2023-04-30T06:46:57;18.00;99.90
16247;DHT22;8231;50.866;7.944;2023-04-30T06:49:27;18.40;99.90
16247;DHT22;8231;50.866;7.944;2023-04-30T06:51:55;18.70;99.90
16247;DHT22;8231;50.866;7.944;2023-04-30T06:54:24;19.00;99.90
16247;DHT22;8231;50.866;7.944;2023-04-30T06:56:53;19.10;99.90
16247;DHT22;8231;50.866;7.944;2023-04-30T06:59:22;19.50;99.90
16247;DHT22;8231;50.866;7.944;2023-04-30T07:01:50;19.80;99.90
16247;DHT22;8231;50.866;7.944;2023-04-30T07:04:19;20.00;99.90
16247;DHT22;8231;50.866;7.944;2023-04-30T07:06:51;20.00;99.90
16247;DHT22;8231;50.866;7.944;2023-04-30T07:09:19;20.10;99.90
16247;DHT22;8231;50.866;7.944;2023-04-30T07:11:48;20.50;99.40
16247;DHT22;8231;50.866;7.944;2023-04-30T07:14:17;20.90;98.00
16247;DHT22;8231;50.866;7.944;2023-04-30T07:16:45;21.10;99.20
16247;DHT22;8231;50.866;7.944;2023-04-30T07:19:13;21.50;98.40
16247;DHT22;8231;50.866;7.944;2023-04-30T07:21:41;22.10;96.90
16247;DHT22;8231;50.866;7.944;2023-04-30T07:24:11;22.30;94.90
16247;DHT22;8231;50.866;7.944;2023-04-30T07:26:39;22.50;94.00
16247;DHT22;8231;50.866;7.944;2023-04-30T07:29:30;22.80;94.80
16247;DHT22;8231;50.866;7.944;2023-04-30T07:31:58;22.60;93.00
16247;DHT22;8231;50.866;7.944;2023-04-30T07:34:27;22.50;91.80
16247;DHT22;8231;50.866;7.944;2023-04-30T07:36:55;22.50;90.60
16247;DHT22;8231;50.866;7.944;2023-04-30T07:39:25;22.70;91.30
16247;DHT22;8231;50.866;7.944;2023-04-30T07:41:53;22.70;90.20
16247;DHT22;8231;50.866;7.944;2023-04-30T07:44:22;22.70;90.40
16247;DHT22;8231;50.866;7.944;2023-04-30T07:46:51;23.00;89.40
16247;DHT22;8231;50.866;7.944;2023-04-30T07:49:19;23.20;89.00
16247;DHT22;8231;50.866;7.944;2023-04-30T07:51:47;23.30;84.40
16247;DHT22;8231;50.866;7.944;2023-04-30T07:54:17;23.20;84.80
16247;DHT22;8231;50.866;7.944;2023-04-30T07:56:46;23.40;83.10
16247;DHT22;8231;50.866;7.944;2023-04-30T07:59:15;23.90;85.20
16247;DHT22;8231;50.866;7.944;2023-04-30T08:01:44;24.20;83.20
16247;DHT22;8231;50.866;7.944;2023-04-30T08:04:13;24.10;82.10
16247;DHT22;8231;50.866;7.944;2023-04-30T08:06:41;23.90;80.40
16247;DHT22;8231;50.866;7.944;2023-04-30T08:09:09;24.10;82.00
16247;DHT22;8231;50.866;7.944;2023-04-30T08:11:37;24.50;81.60
16247;DHT22;8231;50.866;7.944;2023-04-30T08:14:07;24.70;83.80
16247;DHT22;8231;50.866;7.944;2023-04-30T08:16:36;25.10;75.90
16247;DHT22;8231;50.866;7.944;2023-04-30T08:19:04;25.10;73.10
16247;DHT22;8231;50.866;7.944;2023-04-30T08:21:32;24.80;72.30
16247;DHT22;8231;50.866;7.944;2023-04-30T08:24:01;24.70;73.30
16247;DHT22;8231;50.866;7.944;2023-04-30T08:26:29;24.20;70.00
16247;DHT22;8231;50.866;7.944;2023-04-30T08:28:57;24.00;70.40
16247;DHT22;8231;50.866;7.944;2023-04-30T08:31:27;23.90;71.50
16247;DHT22;8231;50.866;7.944;2023-04-30T08:33:55;24.00;71.10
16247;DHT22;8231;50.866;7.944;2023-04-30T08:36:23;24.30;69.20
16247;DHT22;8231;50.866;7.944;2023-04-30T08:38:51;24.10;70.50
16247;DHT22;8231;50.866;7.944;2023-04-30T08:41:24;24.10;71.70
16247;DHT22;8231;50.866;7.944;2023-04-30T08:43:53;24.60;70.30
16247;DHT22;8231;50.866;7.944;2023-04-30T08:46:22;24.20;67.70
16247;DHT22;8231;50.866;7.944;2023-04-30T08:48:52;23.80;70.10
16247;DHT22;8231;50.866;7.944;2023-04-30T08:51:21;23.40;67.90
16247;DHT22;8231;50.866;7.944;2023-04-30T08:53:50;23.30;71.00
16247;DHT22;8231;50.866;7.944;2023-04-30T08:56:22;23.70;71.90
16247;DHT22;8231;50.866;7.944;2023-04-30T08:58:51;24.10;70.50
16247;DHT22;8231;50.866;7.944;2023-04-30T09:01:19;24.30;68.40
16247;DHT22;8231;50.866;7.944;2023-04-30T09:03:48;24.30;71.30
16247;DHT22;8231;50.866;7.944;2023-04-30T09:06:18;24.80;72.80
16247;DHT22;8231;50.866;7.944;2023-04-30T09:08:47;25.00;68.70
16247;DHT22;8231;50.866;7.944;2023-04-30T09:11:22;24.60;67.90
16247;DHT22;8231;50.866;7.944;2023-04-30T09:13:54;24.30;68.40
16247;DHT22;8231;50.866;7.944;2023-04-30T09:16:23;23.90;68.10
16247;DHT22;8231;50.866;7.944;2023-04-30T09:18:52;23.50;69.10
16247;DHT22;8231;50.866;7.944;2023-04-30T09:21:33;23.40;68.50
16247;DHT22;8231;50.866;7.944;2023-04-30T09:24:03;23.50;68.10
16247;DHT22;8231;50.866;7.944;2023-04-30T09:26:33;23.70;68.00
16247;DHT22;8231;50.866;7.944;2023-04-30T09:29:03;23.90;70.00
16247;DHT22;8231;50.866;7.944;2023-04-30T09:31:35;23.80;70.10
16247;DHT22;8231;50.866;7.944;2023-04-30T09:34:05;23.90;67.20
16247;DHT22;8231;50.866;7.944;2023-04-30T09:36:34;23.60;66.20
16247;DHT22;8231;50.866;7.944;2023-04-30T09:39:06;23.30;67.50
16247;DHT22;8231;50.866;7.944;2023-04-30T09:41:41;23.50;66.90
16247;DHT22;8231;50.866;7.944;2023-04-30T09:44:27;23.60;65.40
16247;DHT22;8231;50.866;7.944;2023-04-30T09:46:56;23.70;64.80
16247;DHT22;8231;50.866;7.944;2023-04-30T09:49:26;23.80;64.50
16247;DHT22;8231;50.866;7.944;2023-04-30T09:51:56;23.60;65.30
16247;DHT22;8231;50.866;7.944;2023-04-30T09:54:25;23.40;65.30
16247;DHT22;8231;50.866;7.944;2023-04-30T09:56:56;23.20;64.90
16247;DHT22;8231;50.866;7.944;2023-04-30T09:59:28;23.10;64.00
16247;DHT22;8231;50.866;7.944;2023-04-30T10:01:58;23.00;64.00
16247;DHT22;8231;50.866;7.944;2023-04-30T10:04:29;23.00;65.30
16247;DHT22;8231;50.866;7.944;2023-04-30T10:07:03;23.00;64.70
16247;DHT22;8231;50.866;7.944;2023-04-30T10:09:38;22.50;62.50
16247;DHT22;8231;50.866;7.944;2023-04-30T10:12:13;22.50;64.20
16247;DHT22;8231;50.866;7.944;2023-04-30T10:14:47;22.70;64.10
16247;DHT22;8231;50.866;7.944;2023-04-30T10:17:16;22.70;62.80
16247;DHT22;8231;50.866;7.944;2023-04-30T10:19:47;22.50;63.00
16247;DHT22;8231;50.866;7.944;2023-04-30T10:22:17;22.60;65.20
16247;DHT22;8231;50.866;7.944;2023-04-30T10:24:47;22.40;62.70
16247;DHT22;8231;50.866;7.944;2023-04-30T10:27:16;22.30;63.20
16247;DHT22;8231;50.866;7.944;2023-04-30T10:29:45;22.40;63.70
16247;DHT22;8231;50.866;7.944;2023-04-30T10:32:15;22.20;61.50
16247;DHT22;8231;50.866;7.944;2023-04-30T10:34:51;22.00;63.10
16247;DHT22;8231;50.866;7.944;2023-04-30T10:37:26;22.20;62.50
16247;DHT22;8231;50.866;7.944;2023-04-30T10:39:58;21.90;60.40
16247;DHT22;8231;50.866;7.944;2023-04-30T10:42:28;21.80;62.60
16247;DHT22;8231;50.866;7.944;2023-04-30T10:44:56;22.00;60.80
16247;DHT22;8231;50.866;7.944;2023-04-30T10:47:28;22.00;60.90
16247;DHT22;8231;50.866;7.944;2023-04-30T10:50:01;22.20;62.80
16247;DHT22;8231;50.866;7.944;2023-04-30T10:52:31;22.50;61.30
16247;DHT22;8231;50.866;7.944;2023-04-30T10:55:03;22.30;60.30
16247;DHT22;8231;50.866;7.944;2023-04-30T10:57:39;22.40;61.70
16247;DHT22;8231;50.866;7.944;2023-04-30T11:00:18;22.70;62.90
16247;DHT22;8231;50.866;7.944;2023-04-30T11:02:46;23.20;62.80
16247;DHT22;8231;50.866;7.944;2023-04-30T11:05:16;23.00;59.40
16247;DHT22;8231;50.866;7.944;2023-04-30T11:07:48;22.70;61.20
16247;DHT22;8231;50.866;7.944;2023-04-30T11:10:20;23.10;59.30
16247;DHT22;8231;50.866;7.944;2023-04-30T11:12:49;22.90;61.10
16247;DHT22;8231;50.866;7.944;2023-04-30T11:15:19;23.20;61.50
16247;DHT22;8231;50.866;7.944;2023-04-30T11:17:49;23.20;61.40
16247;DHT22;8231;50.866;7.944;2023-04-30T11:20:19;23.40;60.00
16247;DHT22;8231;50.866;7.944;2023-04-30T11:23:07;23.50;60.50
16247;DHT22;8231;50.866;7.944;2023-04-30T11:25:39;23.90;61.60
16247;DHT22;8231;50.866;7.944;2023-04-30T11:28:13;24.10;60.40
16247;DHT22;8231;50.866;7.944;2023-04-30T11:30:49;24.20;58.30
16247;DHT22;8231;50.866;7.944;2023-04-30T11:33:18;23.90;58.90
16247;DHT22;8231;50.866;7.944;2023-04-30T11:35:47;23.70;59.00
16247;DHT22;8231;50.866;7.944;2023-04-30T11:38:21;23.80;58.90
16247;DHT22;8231;50.866;7.944;2023-04-30T11:40:50;24.10;61.00
16247;DHT22;8231;50.866;7.944;2023-04-30T11:43:21;24.30;60.60
16247;DHT22;8231;50.866;7.944;2023-04-30T11:46:09;24.00;56.50
16247;DHT22;8231;50.866;7.944;2023-04-30T11:48:38;24.10;59.90
16247;DHT22;8231;50.866;7.944;2023-04-30T11:51:15;24.20;58.30
16247;DHT22;8231;50.866;7.944;2023-04-30T11:53:46;24.20;61.50
16247;DHT22;8231;50.866;7.944;2023-04-30T11:56:17;24.30;57.80
16247;DHT22;8231;50.866;7.944;2023-04-30T11:58:46;23.90;56.40
16247;DHT22;8231;50.866;7.944;2023-04-30T12:01:15;23.80;56.40
16247;DHT22;8231;50.866;7.944;2023-04-30T12:03:46;23.90;57.70
16247;DHT22;8231;50.866;7.944;2023-04-30T12:06:20;24.40;59.80
16247;DHT22;8231;50.866;7.944;2023-04-30T12:08:52;25.00;58.30
16247;DHT22;8231;50.866;7.944;2023-04-30T12:11:21;25.50;55.10
16247;DHT22;8231;50.866;7.944;2023-04-30T12:13:52;25.80;55.60
16247;DHT22;8231;50.866;7.944;2023-04-30T12:16:22;26.60;55.10
16247;DHT22;8231;50.866;7.944;2023-04-30T12:18:51;27.00;52.50
16247;DHT22;8231;50.866;7.944;2023-04-30T12:21:20;26.00;51.10
16247;DHT22;8231;50.866;7.944;2023-04-30T12:23:48;25.40;54.50
16247;DHT22;8231;50.866;7.944;2023-04-30T12:26:18;25.20;55.60
16247;DHT22;8231;50.866;7.944;2023-04-30T12:28:47;25.10;52.40
16247;DHT22;8231;50.866;7.944;2023-04-30T12:31:17;24.80;56.90
16247;DHT22;8231;50.866;7.944;2023-04-30T12:33:53;24.50;55.70
16247;DHT22;8231;50.866;7.944;2023-04-30T12:36:28;24.00;55.00
16247;DHT22;8231;50.866;7.944;2023-04-30T12:39:07;24.10;55.30
16247;DHT22;8231;50.866;7.944;2023-04-30T12:41:39;24.00;56.80
16247;DHT22;8231;50.866;7.944;2023-04-30T12:44:18;23.80;54.20
16247;DHT22;8231;50.866;7.944;2023-04-30T12:46:48;23.80;56.60
16247;DHT22;8231;50.866;7.944;2023-04-30T12:49:24;23.30;54.00
16247;DHT22;8231;50.866;7.944;2023-04-30T12:51:57;23.60;58.70
16247;DHT22;8231;50.866;7.944;2023-04-30T12:54:28;23.90;56.70
16247;DHT22;8231;50.866;7.944;2023-04-30T12:57:02;23.80;54.80
16247;DHT22;8231;50.866;7.944;2023-04-30T12:59:32;23.50;54.60
16247;DHT22;8231;50.866;7.944;2023-04-30T13:02:11;23.40;57.00
16247;DHT22;8231;50.866;7.944;2023-04-30T13:04:40;23.50;58.30
16247;DHT22;8231;50.866;7.944;2023-04-30T13:07:09;23.50;57.50
16247;DHT22;8231;50.866;7.944;2023-04-30T13:09:37;23.30;58.40
16247;DHT22;8231;50.866;7.944;2023-04-30T13:12:07;23.10;58.40
16247;DHT22;8231;50.866;7.944;2023-04-30T13:14:35;23.00;56.90
16247;DHT22;8231;50.866;7.944;2023-04-30T13:17:04;22.90;59.10
16247;DHT22;8231;50.866;7.944;2023-04-30T13:19:33;23.10;58.30
16247;DHT22;8231;50.866;7.944;2023-04-30T13:22:01;23.20;60.40
16247;DHT22;8231;50.866;7.944;2023-04-30T13:24:29;23.10;56.60
16247;DHT22;8231;50.866;7.944;2023-04-30T13:26:58;23.00;57.00
16247;DHT22;8231;50.866;7.944;2023-04-30T13:29:27;23.30;57.70
16247;DHT22;8231;50.866;7.944;2023-04-30T13:31:55;23.50;57.70
16247;DHT22;8231;50.866;7.944;2023-04-30T13:34:24;23.10;56.40
16247;DHT22;8231;50.866;7.944;2023-04-30T13:36:52;22.90;58.20
16247;DHT22;8231;50.866;7.944;2023-04-30T13:39:20;22.90;56.90
16247;DHT22;8231;50.866;7.944;2023-04-30T13:41:49;22.70;57.50
16247;DHT22;8231;50.866;7.944;2023-04-30T13:44:17;22.80;62.00
16247;DHT22;8231;50.866;7.944;2023-04-30T13:46:46;22.90;58.60
16247;DHT22;8231;50.866;7.944;2023-04-30T13:49:16;23.00;59.20
16247;DHT22;8231;50.866;7.944;2023-04-30T13:51:44;22.90;57.30
16247;DHT22;8231;50.866;7.944;2023-04-30T13:54:12;22.60;57.10
16247;DHT22;8231;50.866;7.944;2023-04-30T13:56:40;22.80;56.00
16247;DHT22;8231;50.866;7.944;2023-04-30T13:59:09;23.10;56.10
16247;DHT22;8231;50.866;7.944;2023-04-30T14:01:38;23.30;57.50
16247;DHT22;8231;50.866;7.944;2023-04-30T14:04:07;23.40;58.30
16247;DHT22;8231;50.866;7.944;2023-04-30T14:06:36;23.20;56.80
16247;DHT22;8231;50.866;7.944;2023-04-30T14:09:05;23.10;59.30
16247;DHT22;8231;50.866;7.944;2023-04-30T14:11:33;22.80;56.70
16247;DHT22;8231;50.866;7.944;2023-04-30T14:14:02;22.40;59.10
16247;DHT22;8231;50.866;7.944;2023-04-30T14:16:30;22.20;58.20
16247;DHT22;8231;50.866;7.944;2023-04-30T14:22:03;21.90;56.70
16247;DHT22;8231;50.866;7.944;2023-04-30T14:24:31;21.60;56.80
16247;DHT22;8231;50.866;7.944;2023-04-30T14:27:00;21.60;55.90
16247;DHT22;8231;50.866;7.944;2023-04-30T14:29:31;22.00;57.70
16247;DHT22;8231;50.866;7.944;2023-04-30T14:31:59;22.40;58.00
16247;DHT22;8231;50.866;7.944;2023-04-30T14:34:28;22.40;58.00
16247;DHT22;8231;50.866;7.944;2023-04-30T14:36:57;22.70;59.00
16247;DHT22;8231;50.866;7.944;2023-04-30T14:39:29;22.50;57.80
16247;DHT22;8231;50.866;7.944;2023-04-30T14:41:59;22.20;56.60
16247;DHT22;8231;50.866;7.944;2023-04-30T14:44:29;21.60;57.20
16247;DHT22;8231;50.866;7.944;2023-04-30T14:46:58;21.30;59.20
16247;DHT22;8231;50.866;7.944;2023-04-30T14:49:26;21.20;58.00
16247;DHT22;8231;50.866;7.944;2023-04-30T14:51:55;21.10;58.70
16247;DHT22;8231;50.866;7.944;2023-04-30T14:54:23;21.20;60.10
16247;DHT22;8231;50.866;7.944;2023-04-30T14:56:53;21.20;60.70
16247;DHT22;8231;50.866;7.944;2023-04-30T14:59:21;21.40;58.80
16247;DHT22;8231;50.866;7.944;2023-04-30T15:01:49;21.40;58.30
16247;DHT22;8231;50.866;7.944;2023-04-30T15:04:18;21.30;57.90
16247;DHT22;8231;50.866;7.944;2023-04-30T15:06:46;21.50;58.40
16247;DHT22;8231;50.866;7.944;2023-04-30T15:09:15;21.50;60.40
16247;DHT22;8231;50.866;7.944;2023-04-30T15:30:38;21.40;58.70
16247;DHT22;8231;50.866;7.944;2023-04-30T15:33:06;21.40;60.40
16247;DHT22;8231;50.866;7.944;2023-04-30T15:35:35;21.40;60.00
16247;DHT22;8231;50.866;7.944;2023-04-30T15:38:03;21.40;60.00
16247;DHT22;8231;50.866;7.944;2023-04-30T15:46:52;20.80;59.80
16247;DHT22;8231;50.866;7.944;2023-04-30T15:49:21;20.50;61.10
16247;DHT22;8231;50.866;7.944;2023-04-30T15:51:50;20.50;59.70
16247;DHT22;8231;50.866;7.944;2023-04-30T15:54:18;20.50;60.40
16247;DHT22;8231;50.866;7.944;2023-04-30T15:56:46;20.40;60.00
16247;DHT22;8231;50.866;7.944;2023-04-30T16:08:53;20.40;60.50
16247;DHT22;8231;50.866;7.944;2023-04-30T16:11:22;20.20;60.00
16247;DHT22;8231;50.866;7.944;2023-04-30T16:13:51;20.10;60.00
16247;DHT22;8231;50.866;7.944;2023-04-30T16:16:19;20.00;61.10
16247;DHT22;8231;50.866;7.944;2023-04-30T16:18:47;19.80;61.80
16247;DHT22;8231;50.866;7.944;2023-04-30T16:21:17;19.70;64.10
16247;DHT22;8231;50.866;7.944;2023-04-30T16:23:45;19.70;64.50
16247;DHT22;8231;50.866;7.944;2023-04-30T16:26:15;19.80;63.10
16247;DHT22;8231;50.866;7.944;2023-04-30T16:28:44;19.60;63.10
16247;DHT22;8231;50.866;7.944;2023-04-30T16:31:12;19.60;62.00
16247;DHT22;8231;50.866;7.944;2023-04-30T16:33:41;19.30;63.00
16247;DHT22;8231;50.866;7.944;2023-04-30T16:36:10;19.10;62.60
16247;DHT22;8231;50.866;7.944;2023-04-30T16:38:38;19.00;62.80
16247;DHT22;8231;50.866;7.944;2023-04-30T16:41:06;19.10;62.10
16247;DHT22;8231;50.866;7.944;2023-04-30T16:43:36;19.20;62.80
16247;DHT22;8231;50.866;7.944;2023-04-30T16:46:04;19.30;62.90
16247;DHT22;8231;50.866;7.944;2023-04-30T16:48:33;19.20;62.50
16247;DHT22;8231;50.866;7.944;2023-04-30T16:51:01;19.30;62.60
16247;DHT22;8231;50.866;7.944;2023-04-30T16:53:29;19.20;63.60
16247;DHT22;8231;50.866;7.944;2023-04-30T16:55:57;19.30;63.80
16247;DHT22;8231;50.866;7.944;2023-04-30T16:58:26;19.30;66.30
16247;DHT22;8231;50.866;7.944;2023-04-30T17:00:56;19.40;65.90
16247;DHT22;8231;50.866;7.944;2023-04-30T17:03:24;19.40;64.10